createdAt,value
2022-12-28T00:00:53.453Z,101369.63
2022-12-28T00:03:56.364Z,101367.03
2022-12-28T00:06:58.456Z,101364.44
2022-12-28T00:10:00.735Z,101369.66
2022-12-28T00:13:03.510Z,101364.44
2022-12-28T00:16:11.486Z,101355.78
2022-12-28T00:19:15.974Z,101355.78
2022-12-28T00:22:18.158Z,101347.97
2022-12-28T00:25:20.248Z,101350.56
2022-12-28T00:28:22.536Z,101342.78
2022-12-28T00:31:24.727Z,101347.12
2022-12-28T00:34:27.042Z,101351.44
2022-12-28T00:37:29.179Z,101354.06
2022-12-28T00:40:31.503Z,101350.59
2022-12-28T00:43:34.018Z,101352.31
2022-12-28T00:46:36.334Z,101336.72
2022-12-28T00:49:38.335Z,101348.84
2022-12-28T00:52:40.539Z,101343.62
2022-12-28T00:55:43.163Z,101356.66
2022-12-28T00:58:46.142Z,101356.66
2022-12-28T01:01:48.384Z,101354.06
2022-12-28T01:04:50.586Z,101347.97
2022-12-28T01:07:52.666Z,101349.72
2022-12-28T01:10:54.908Z,101347.12
2022-12-28T01:14:00.574Z,101354.91
2022-12-28T01:17:02.784Z,101352.31
2022-12-28T01:20:05.906Z,101362.72
2022-12-28T01:23:08.061Z,101365.31
2022-12-28T01:26:13.608Z,101358.38
2022-12-28T01:29:15.636Z,101355.78
2022-12-28T01:32:17.766Z,101356.66
2022-12-28T01:35:19.899Z,101351.44
2022-12-28T01:38:22.004Z,101347.97
2022-12-28T01:41:26.623Z,101347.97
2022-12-28T01:44:34.616Z,101342.78
2022-12-28T01:47:36.821Z,101341.91
2022-12-28T01:50:38.918Z,101342.75
2022-12-28T01:53:41.335Z,101329.75
2022-12-28T01:56:44.609Z,101334.97
2022-12-28T01:59:53.333Z,101338.44
2022-12-28T02:03:07.620Z,101338.44
2022-12-28T02:06:12.691Z,101333.25
2022-12-28T02:09:21.300Z,101328.03
2022-12-28T02:12:24.970Z,101324.56
2022-12-28T02:15:27.153Z,101323.69
2022-12-28T02:18:29.405Z,101327.16
2022-12-28T02:21:46.134Z,101328.03
2022-12-28T02:25:13.254Z,101318.47
2022-12-28T02:28:58.839Z,101327.16
2022-12-28T02:32:13.720Z,101324.53
2022-12-28T02:35:21.594Z,101330.59
2022-12-28T02:38:31.241Z,101327.16
2022-12-28T02:41:34.838Z,101336.69
2022-12-28T02:44:56.282Z,101332.34
2022-12-28T02:48:16.782Z,101327.12
2022-12-28T02:51:37.719Z,101323.69
2022-12-28T02:55:12.628Z,101326.31
2022-12-28T02:58:39.554Z,101315.91
2022-12-28T03:01:59.934Z,101318.50
2022-12-28T03:05:13.323Z,101307.22
2022-12-28T03:08:27.010Z,101295.09
2022-12-28T03:11:44.969Z,101289.03
2022-12-28T03:14:54.162Z,101277.75
2022-12-28T03:18:31.367Z,101271.69
2022-12-28T03:21:53.546Z,101272.53
2022-12-28T03:25:17.488Z,101266.50
2022-12-28T03:28:43.314Z,101269.09
2022-12-28T03:31:45.504Z,101263.87
2022-12-28T03:34:47.678Z,101262.16
2022-12-28T03:38:01.541Z,101253.47
2022-12-28T03:41:12.984Z,101251.75
2022-12-28T03:44:35.356Z,101250.00
2022-12-28T03:47:40.098Z,101245.66
2022-12-28T03:50:46.160Z,101242.22
2022-12-28T03:53:48.515Z,101237.03
2022-12-28T03:56:52.013Z,101240.47
2022-12-28T03:59:54.140Z,101248.25
2022-12-28T04:02:56.494Z,101250.00
2022-12-28T04:05:58.733Z,101243.06
2022-12-28T04:09:00.967Z,101243.06
2022-12-28T04:12:03.105Z,101243.94
2022-12-28T04:15:06.027Z,101251.75
2022-12-28T04:18:08.253Z,101255.22
2022-12-28T04:21:11.654Z,101254.34
2022-12-28T04:24:13.822Z,101235.31
2022-12-28T04:27:15.959Z,101252.62
2022-12-28T04:30:18.068Z,101250.87
2022-12-28T04:33:20.262Z,101247.41
2022-12-28T04:36:22.348Z,101256.09
2022-12-28T04:39:24.463Z,101253.47
2022-12-28T04:42:26.686Z,101246.56
2022-12-28T04:45:28.716Z,101246.56
2022-12-28T04:48:31.713Z,101255.22
2022-12-28T04:51:34.047Z,101256.09
2022-12-28T04:54:36.138Z,101260.41
2022-12-28T04:57:38.202Z,101249.12
2022-12-28T05:00:40.679Z,101229.22
2022-12-28T05:03:49.499Z,101232.69
2022-12-28T05:06:56.393Z,101225.72
2022-12-28T05:09:58.541Z,101220.53
2022-12-28T05:13:00.549Z,101218.75
2022-12-28T05:16:04.483Z,101211.78
2022-12-28T05:19:06.770Z,101203.09
2022-12-28T05:22:12.020Z,101197.81
2022-12-28T05:25:14.227Z,101192.41
2022-12-28T05:28:16.256Z,101188.59
2022-12-28T05:31:21.323Z,101185.25
2022-12-28T05:34:23.420Z,101187.97
2022-12-28T05:37:25.504Z,101187.22
2022-12-28T05:40:27.701Z,101187.38
2022-12-28T05:43:30.704Z,101203.03
2022-12-28T05:46:34.780Z,101217.84
2022-12-28T05:49:37.743Z,101222.19
2022-12-28T05:52:39.866Z,101226.53
2022-12-28T05:55:41.879Z,101228.25
2022-12-28T05:58:45.625Z,101220.44
2022-12-28T06:01:47.887Z,101220.41
2022-12-28T06:04:50.080Z,101209.13
2022-12-28T06:07:53.451Z,101210.00
2022-12-28T06:10:59.965Z,101216.87
2022-12-28T06:14:03.958Z,101216.91
2022-12-28T06:17:06.426Z,101202.09
2022-12-28T06:20:08.992Z,101202.91
2022-12-28T06:23:11.073Z,101202.00
2022-12-28T06:26:15.904Z,101209.84
2022-12-28T06:29:18.044Z,101207.28
2022-12-28T06:32:20.159Z,101204.50
2022-12-28T06:35:22.180Z,101199.97
2022-12-28T06:38:24.553Z,101196.50
2022-12-28T06:41:28.164Z,101197.31
2022-12-28T06:44:30.202Z,101200.78
2022-12-28T06:47:33.912Z,101185.03
2022-12-28T06:50:40.031Z,101186.78
2022-12-28T06:53:43.169Z,101192.78
2022-12-28T06:56:45.335Z,101194.41
2022-12-28T06:59:47.683Z,101192.63
2022-12-28T07:02:49.808Z,101190.06
2022-12-28T07:05:51.937Z,101191.09
2022-12-28T07:09:03.270Z,101197.38
2022-12-28T07:12:05.595Z,101192.31
2022-12-28T07:15:08.261Z,101194.16
2022-12-28T07:18:10.405Z,101199.47
2022-12-28T07:21:16.946Z,101192.56
2022-12-28T07:24:19.258Z,101196.94
2022-12-28T07:27:21.248Z,101197.84
2022-12-28T07:30:23.339Z,101204.81
2022-12-28T07:33:25.431Z,101205.66
2022-12-28T07:36:30.446Z,101202.22
2022-12-28T07:39:32.810Z,101203.97
2022-12-28T07:42:35.556Z,101202.25
2022-12-28T07:45:37.602Z,101184.88
2022-12-28T07:48:40.852Z,101184.00
2022-12-28T07:51:42.931Z,101184.00
2022-12-28T07:54:45.044Z,101188.34
2022-12-28T07:57:47.117Z,101186.53
2022-12-28T08:00:50.020Z,101183.06
2022-12-28T08:04:01.152Z,101181.25
2022-12-28T08:07:03.312Z,101171.50
2022-12-28T08:10:05.945Z,101171.34
2022-12-28T08:13:08.012Z,101174.59
2022-12-28T08:16:12.130Z,101170.88
2022-12-28T08:19:14.181Z,101165.41
2022-12-28T08:22:16.269Z,101176.44
2022-12-28T08:25:18.363Z,101169.22
2022-12-28T08:28:20.424Z,101163.59
2022-12-28T08:31:25.871Z,101172.59
2022-12-28T08:34:27.945Z,101170.19
2022-12-28T08:37:30.077Z,101156.19
2022-12-28T08:40:32.278Z,101157.94
2022-12-28T08:43:35.172Z,101148.87
2022-12-28T08:46:37.702Z,101139.75
2022-12-28T08:49:39.911Z,101139.00
2022-12-28T08:52:42.116Z,101146.72
2022-12-28T08:55:44.337Z,101144.22
2022-12-28T08:58:47.885Z,101138.25
2022-12-28T09:01:50.473Z,101126.13
2022-12-28T09:04:52.661Z,101115.09
2022-12-28T09:07:59.375Z,101117.25
2022-12-28T09:11:04.228Z,101134.78
2022-12-28T09:14:09.112Z,101136.69
2022-12-28T09:17:11.147Z,101140.31
2022-12-28T09:20:13.524Z,101136.09
2022-12-28T09:23:15.840Z,101142.37
2022-12-28T09:26:24.005Z,101150.25
2022-12-28T09:29:26.086Z,101149.06
2022-12-28T09:32:28.177Z,101168.19
2022-12-28T09:35:30.239Z,101157.16
2022-12-28T09:38:32.345Z,101165.94
2022-12-28T09:42:12.976Z,101160.75
2022-12-28T09:45:16.408Z,101155.59
2022-12-28T09:48:23.263Z,101149.66
2022-12-28T09:51:31.936Z,101151.91
2022-12-28T09:54:34.227Z,101157.19
2022-12-28T09:57:40.274Z,101146.06
2022-12-28T10:00:56.105Z,101144.38
2022-12-28T10:04:01.491Z,101149.50
2022-12-28T10:07:03.661Z,101148.19
2022-12-28T10:10:06.172Z,101146.56
2022-12-28T10:16:56.488Z,101143.38
2022-12-28T10:19:59.411Z,101136.97
2022-12-28T10:23:02.694Z,101124.44
2022-12-28T10:26:06.451Z,101109.00
2022-12-28T10:29:16.279Z,101104.25
2022-12-28T10:32:19.513Z,101094.03
2022-12-28T10:35:30.462Z,101083.59
2022-12-28T10:38:35.041Z,101084.19
2022-12-28T10:41:38.975Z,101076.69
2022-12-28T10:44:41.424Z,101078.94
2022-12-28T10:47:48.532Z,101070.19
2022-12-28T10:50:52.218Z,101071.84
2022-12-28T10:53:56.010Z,101063.84
2022-12-28T10:56:58.081Z,101055.75
2022-12-28T11:00:26.788Z,101056.69
2022-12-28T11:03:32.376Z,101043.34
2022-12-28T11:06:37.121Z,101033.31
2022-12-28T11:09:39.525Z,101026.87
2022-12-28T11:12:45.670Z,101018.19
2022-12-28T11:15:54.223Z,101017.47
2022-12-28T11:18:57.688Z,101015.75
2022-12-28T11:21:59.748Z,101015.16
2022-12-28T11:25:02.757Z,101009.41
2022-12-28T11:28:17.485Z,100996.06
2022-12-28T11:31:33.657Z,100988.41
2022-12-28T11:34:37.882Z,100989.94
2022-12-28T11:37:52.101Z,100996.09
2022-12-28T11:40:55.300Z,101004.97
2022-12-28T11:44:01.018Z,101003.53
2022-12-28T11:47:22.378Z,100999.13
2022-12-28T11:50:34.766Z,100985.91
2022-12-28T11:53:45.836Z,100973.38
2022-12-28T11:56:47.781Z,100957.47
2022-12-28T11:59:49.942Z,100957.72
2022-12-28T12:03:03.618Z,100955.09
2022-12-28T12:06:06.010Z,100939.69
2022-12-28T12:09:26.380Z,100936.50
2022-12-28T12:12:31.191Z,100932.47
2022-12-28T12:15:45.304Z,100918.56
2022-12-28T12:18:52.369Z,100895.25
2022-12-28T12:22:06.840Z,100890.81
2022-12-28T12:25:23.965Z,100878.25
2022-12-28T12:28:29.544Z,100866.47
2022-12-28T12:31:37.729Z,100862.38
2022-12-28T12:34:47.311Z,100866.03
2022-12-28T12:38:27.562Z,100873.69
2022-12-28T12:42:10.094Z,100855.22
2022-12-28T12:45:36.515Z,100862.50
2022-12-28T12:48:47.773Z,100864.75
2022-12-28T12:52:18.189Z,100850.78
2022-12-28T12:55:34.254Z,100860.13
2022-12-28T12:58:54.814Z,100849.84
2022-12-28T13:02:12.495Z,100843.72
2022-12-28T13:05:24.479Z,100835.41
2022-12-28T13:08:33.294Z,100831.78
2022-12-28T13:11:38.860Z,100833.50
2022-12-28T13:14:45.803Z,100830.84
2022-12-28T13:21:45.156Z,100821.88
2022-12-28T13:24:48.065Z,100826.91
2022-12-28T13:27:50.175Z,100826.78
2022-12-28T13:31:22.653Z,100830.81
2022-12-28T13:34:36.165Z,100824.28
2022-12-28T13:37:38.210Z,100825.00
2022-12-28T13:40:49.118Z,100812.59
2022-12-28T13:43:57.054Z,100816.22
2022-12-28T13:47:09.310Z,100811.22
2022-12-28T13:50:16.472Z,100806.94
2022-12-28T13:53:23.405Z,100803.72
2022-12-28T13:56:27.078Z,100790.78
2022-12-28T13:59:29.331Z,100797.16
2022-12-28T14:02:34.578Z,100796.28
2022-12-28T14:05:36.951Z,100795.44
2022-12-28T14:08:40.350Z,100792.41
2022-12-28T14:11:45.295Z,100794.31
2022-12-28T14:14:48.776Z,100794.19
2022-12-28T14:17:52.600Z,100788.12
2022-12-28T14:20:58.151Z,100777.66
2022-12-28T14:24:07.581Z,100779.75
2022-12-28T14:27:09.616Z,100780.94
2022-12-28T14:30:23.063Z,100781.94
2022-12-28T14:33:27.930Z,100787.38
2022-12-28T14:36:37.482Z,100785.41
2022-12-28T14:39:45.497Z,100772.34
2022-12-28T14:42:51.144Z,100770.09
2022-12-28T14:49:28.493Z,100778.34
2022-12-28T14:53:11.156Z,100785.94
2022-12-28T14:56:19.181Z,100785.44
2022-12-28T14:59:33.564Z,100780.53
2022-12-28T15:00:25.778Z,100784.91
2022-12-28T15:02:35.731Z,100790.56
2022-12-28T15:05:50.743Z,100782.25
2022-12-28T15:08:54.856Z,100780.09
2022-12-28T15:12:18.165Z,100783.06
2022-12-28T15:15:23.664Z,100774.66
2022-12-28T15:18:28.032Z,100772.44
2022-12-28T15:21:30.557Z,100766.44
2022-12-28T15:24:34.603Z,100767.53
2022-12-28T15:27:36.925Z,100775.53
2022-12-28T15:30:45.171Z,100781.91
2022-12-28T15:33:48.188Z,100781.38
2022-12-28T15:36:51.053Z,100776.06
2022-12-28T15:39:53.111Z,100768.34
2022-12-28T15:42:55.234Z,100767.53
2022-12-28T15:45:59.356Z,100775.75
2022-12-28T15:49:02.325Z,100767.91
2022-12-28T15:52:04.580Z,100773.38
2022-12-28T15:55:06.951Z,100771.75
2022-12-28T15:58:09.097Z,100772.78
2022-12-28T16:01:11.222Z,100772.09
2022-12-28T16:04:14.346Z,100773.19
2022-12-28T16:07:16.460Z,100779.44
2022-12-28T16:10:19.237Z,100781.19
2022-12-28T16:13:21.714Z,100782.91
2022-12-28T16:16:25.242Z,100785.56
2022-12-28T16:19:27.339Z,100776.03
2022-12-28T16:22:29.417Z,100780.69
2022-12-28T16:25:31.485Z,100775.81
2022-12-28T16:28:34.226Z,100777.97
2022-12-28T16:31:38.264Z,100782.47
2022-12-28T16:34:40.468Z,100777.41
2022-12-28T16:37:43.326Z,100782.56
2022-12-28T16:40:46.386Z,100782.41
2022-12-28T16:43:48.741Z,100782.72
2022-12-28T16:46:51.400Z,100783.88
2022-12-28T16:49:53.509Z,100786.47
2022-12-28T16:53:00.990Z,100782.03
2022-12-28T16:56:04.910Z,100783.97
2022-12-28T16:59:07.271Z,100792.69
2022-12-28T17:02:12.871Z,100781.62
2022-12-28T17:05:15.681Z,100787.13
2022-12-28T17:08:18.698Z,100783.91
2022-12-28T17:11:21.020Z,100773.69
2022-12-28T17:14:37.422Z,100776.53
2022-12-28T17:17:39.879Z,100768.03
2022-12-28T17:20:42.132Z,100773.41
2022-12-28T17:23:44.468Z,100768.97
2022-12-28T17:26:46.536Z,100764.59
2022-12-28T17:29:48.801Z,100759.19
2022-12-28T17:32:51.035Z,100760.28
2022-12-28T17:35:55.843Z,100754.50
2022-12-28T17:38:58.055Z,100764.56
2022-12-28T17:42:00.398Z,100763.75
2022-12-28T17:45:07.575Z,100758.59
2022-12-28T17:48:13.855Z,100756.91
2022-12-28T17:51:16.090Z,100760.44
2022-12-28T17:54:18.468Z,100749.09
2022-12-28T17:57:20.858Z,100749.03
2022-12-28T18:00:23.072Z,100745.72
2022-12-28T18:03:31.570Z,100743.97
2022-12-28T18:06:35.949Z,100752.81
2022-12-28T18:09:38.391Z,100739.88
2022-12-28T18:12:41.042Z,100745.37
2022-12-28T18:15:45.709Z,100738.59
2022-12-28T18:18:48.345Z,100739.53
2022-12-28T18:21:50.714Z,100740.22
2022-12-28T18:24:53.711Z,100750.75
2022-12-28T18:27:57.219Z,100744.75
2022-12-28T18:31:02.786Z,100742.16
2022-12-28T18:34:08.246Z,100744.84
2022-12-28T18:37:11.703Z,100746.78
2022-12-28T18:40:16.479Z,100752.91
2022-12-28T18:43:21.809Z,100741.63
2022-12-28T18:46:28.386Z,100742.66
2022-12-28T18:49:33.439Z,100731.22
2022-12-28T18:52:36.771Z,100727.12
2022-12-28T18:55:44.004Z,100724.03
2022-12-28T18:58:54.339Z,100724.13
2022-12-28T19:02:06.945Z,100717.19
2022-12-28T19:05:11.968Z,100720.06
2022-12-28T19:08:15.614Z,100712.31
2022-12-28T19:11:25.067Z,100706.91
2022-12-28T19:14:29.880Z,100707.56
2022-12-28T19:17:34.691Z,100702.56
2022-12-28T19:20:38.241Z,100705.88
2022-12-28T19:23:41.759Z,100698.81
2022-12-28T19:26:46.667Z,100699.66
2022-12-28T19:29:51.033Z,100694.28
2022-12-28T19:32:55.668Z,100688.31
2022-12-28T19:35:59.727Z,100685.63
2022-12-28T19:39:03.343Z,100683.09
2022-12-28T19:42:07.370Z,100673.63
2022-12-28T19:45:12.924Z,100667.41
2022-12-28T19:48:17.042Z,100677.97
2022-12-28T19:51:27.079Z,100665.72
2022-12-28T19:54:32.847Z,100667.50
2022-12-28T19:57:38.693Z,100652.69
2022-12-28T20:00:43.381Z,100645.84
2022-12-28T20:03:46.936Z,100647.69
2022-12-28T20:06:49.916Z,100640.53
2022-12-28T20:09:52.461Z,100641.31
2022-12-28T20:12:54.826Z,100639.63
2022-12-28T20:15:58.629Z,100636.06
2022-12-28T20:19:03.323Z,100635.41
2022-12-28T20:22:06.001Z,100639.84
2022-12-28T20:25:09.705Z,100634.63
2022-12-28T20:28:12.134Z,100637.28
2022-12-28T20:31:15.647Z,100638.38
2022-12-28T20:34:18.045Z,100635.00
2022-12-28T20:37:20.870Z,100638.75
2022-12-28T20:40:23.659Z,100632.00
2022-12-28T20:43:27.831Z,100634.78
2022-12-28T20:46:30.591Z,100632.41
2022-12-28T20:49:33.985Z,100637.56
2022-12-28T20:52:37.065Z,100653.25
2022-12-28T20:55:39.395Z,100651.50
2022-12-28T20:58:44.564Z,100642.88
2022-12-28T21:01:47.938Z,100645.62
2022-12-28T21:04:51.480Z,100638.66
2022-12-28T21:07:54.299Z,100641.31
2022-12-28T21:10:56.785Z,100627.56
2022-12-28T21:14:00.311Z,100629.44
2022-12-28T21:17:02.695Z,100613.84
2022-12-28T21:20:05.711Z,100612.25
2022-12-28T21:23:08.407Z,100607.97
2022-12-28T21:26:18.946Z,100604.56
2022-12-28T21:29:25.798Z,100607.09
2022-12-28T21:32:28.467Z,100611.50
2022-12-28T21:35:34.296Z,100601.91
2022-12-28T21:38:39.491Z,100603.66
2022-12-28T21:41:50.979Z,100599.34
2022-12-28T21:44:53.229Z,100596.78
2022-12-28T21:47:55.369Z,100591.62
2022-12-28T21:51:30.426Z,100590.72
2022-12-28T21:54:33.627Z,100592.44
2022-12-28T21:57:35.702Z,100588.03
2022-12-28T22:00:56.365Z,100580.94
2022-12-28T22:04:17.084Z,100584.47
2022-12-28T22:07:21.177Z,100574.00
2022-12-28T22:10:42.133Z,100568.72
2022-12-28T22:13:44.700Z,100569.56
2022-12-28T22:16:46.812Z,100561.78
2022-12-28T22:19:49.101Z,100564.47
2022-12-28T22:22:51.272Z,100560.22
2022-12-28T22:25:53.407Z,100569.06
2022-12-28T22:28:55.640Z,100562.19
2022-12-28T22:31:57.749Z,100559.44
2022-12-28T22:34:59.847Z,100560.34
2022-12-28T22:38:01.900Z,100546.41
2022-12-28T22:41:03.960Z,100544.69
2022-12-28T22:44:06.010Z,100547.25
2022-12-28T22:47:08.882Z,100546.41
2022-12-28T22:50:13.071Z,100538.53
2022-12-28T22:53:15.149Z,100539.34
2022-12-28T22:56:20.933Z,100543.59
2022-12-28T22:59:23.239Z,100546.97
2022-12-28T23:02:25.559Z,100539.09
2022-12-28T23:05:27.816Z,100528.66
2022-12-28T23:08:29.899Z,100536.38
2022-12-28T23:11:38.343Z,100531.06
2022-12-28T23:14:59.192Z,100520.53
2022-12-28T23:18:21.281Z,100517.03
2022-12-28T23:21:42.670Z,100513.53
2022-12-28T23:25:03.441Z,100513.47
2022-12-28T23:28:08.501Z,100508.19
2022-12-28T23:31:10.913Z,100509.00
2022-12-28T23:34:13.014Z,100509.00
2022-12-28T23:37:15.151Z,100505.63
2022-12-28T23:40:18.962Z,100514.31
2022-12-28T23:43:21.133Z,100508.22
2022-12-28T23:46:23.280Z,100505.63
2022-12-28T23:49:25.558Z,100509.19
2022-12-28T23:52:28.547Z,100505.72
2022-12-28T23:55:30.732Z,100510.09
2022-12-28T23:58:33.015Z,100507.56
